sensor_id;sensor_type;location;lat;lon;timestamp;P1;durP1;ratioP1;P2;durP2;ratioP2
49776;SDS011;35673;51.482;7.436;2022-08-21T00:01:24;11.60;;;5.95;;
49776;SDS011;35673;51.482;7.436;2022-08-21T00:03:51;12.80;;;6.18;;
49776;SDS011;35673;51.482;7.436;2022-08-21T00:06:19;9.65;;;5.65;;
49776;SDS011;35673;51.482;7.436;2022-08-21T00:08:45;11.25;;;6.05;;
49776;SDS011;35673;51.482;7.436;2022-08-21T00:11:11;13.07;;;6.38;;
49776;SDS011;35673;51.482;7.436;2022-08-21T00:13:37;10.95;;;6.53;;
49776;SDS011;35673;51.482;7.436;2022-08-21T00:16:04;12.55;;;6.20;;
49776;SDS011;35673;51.482;7.436;2022-08-21T00:18:29;10.43;;;5.65;;
49776;SDS011;35673;51.482;7.436;2022-08-21T00:20:55;7.97;;;5.25;;
49776;SDS011;35673;51.482;7.436;2022-08-21T00:23:21;9.60;;;5.70;;
49776;SDS011;35673;51.482;7.436;2022-08-21T00:25:47;12.38;;;5.50;;
49776;SDS011;35673;51.482;7.436;2022-08-21T00:28:13;10.20;;;5.03;;
49776;SDS011;35673;51.482;7.436;2022-08-21T00:30:39;10.45;;;5.40;;
49776;SDS011;35673;51.482;7.436;2022-08-21T00:33:06;13.85;;;6.03;;
49776;SDS011;35673;51.482;7.436;2022-08-21T00:35:33;10.55;;;5.40;;
49776;SDS011;35673;51.482;7.436;2022-08-21T00:38:01;9.40;;;5.20;;
49776;SDS011;35673;51.482;7.436;2022-08-21T00:40:33;8.95;;;5.25;;
49776;SDS011;35673;51.482;7.436;2022-08-21T00:43:05;17.80;;;5.30;;
49776;SDS011;35673;51.482;7.436;2022-08-21T00:45:32;9.18;;;4.43;;
49776;SDS011;35673;51.482;7.436;2022-08-21T00:47:58;8.00;;;4.82;;
49776;SDS011;35673;51.482;7.436;2022-08-21T00:50:25;10.38;;;5.00;;
49776;SDS011;35673;51.482;7.436;2022-08-21T00:52:54;10.60;;;4.07;;
49776;SDS011;35673;51.482;7.436;2022-08-21T00:55:20;6.72;;;4.53;;
49776;SDS011;35673;51.482;7.436;2022-08-21T00:57:54;8.63;;;4.00;;
49776;SDS011;35673;51.482;7.436;2022-08-21T01:00:24;6.95;;;3.92;;
49776;SDS011;35673;51.482;7.436;2022-08-21T01:02:53;8.43;;;3.90;;
49776;SDS011;35673;51.482;7.436;2022-08-21T01:05:20;6.68;;;3.70;;
49776;SDS011;35673;51.482;7.436;2022-08-21T01:07:46;7.38;;;4.22;;
49776;SDS011;35673;51.482;7.436;2022-08-21T01:10:11;6.75;;;3.72;;
49776;SDS011;35673;51.482;7.436;2022-08-21T01:12:37;9.15;;;4.05;;
49776;SDS011;35673;51.482;7.436;2022-08-21T01:15:05;9.43;;;3.95;;
49776;SDS011;35673;51.482;7.436;2022-08-21T01:17:32;5.63;;;3.67;;
49776;SDS011;35673;51.482;7.436;2022-08-21T01:19:59;6.72;;;4.05;;
49776;SDS011;35673;51.482;7.436;2022-08-21T01:22:26;5.72;;;3.90;;
49776;SDS011;35673;51.482;7.436;2022-08-21T01:24:52;10.30;;;3.88;;
49776;SDS011;35673;51.482;7.436;2022-08-21T01:27:18;5.35;;;3.72;;
49776;SDS011;35673;51.482;7.436;2022-08-21T01:32:30;5.35;;;3.55;;
49776;SDS011;35673;51.482;7.436;2022-08-21T01:34:56;7.20;;;3.85;;
49776;SDS011;35673;51.482;7.436;2022-08-21T01:37:21;5.68;;;3.97;;
49776;SDS011;35673;51.482;7.436;2022-08-21T01:39:47;10.38;;;3.97;;
49776;SDS011;35673;51.482;7.436;2022-08-21T01:42:14;7.75;;;4.20;;
49776;SDS011;35673;51.482;7.436;2022-08-21T01:44:40;9.68;;;4.32;;
49776;SDS011;35673;51.482;7.436;2022-08-21T01:47:07;9.02;;;4.10;;
49776;SDS011;35673;51.482;7.436;2022-08-21T01:49:34;9.00;;;4.10;;
49776;SDS011;35673;51.482;7.436;2022-08-21T01:52:01;5.65;;;4.00;;
49776;SDS011;35673;51.482;7.436;2022-08-21T01:54:28;8.13;;;4.35;;
49776;SDS011;35673;51.482;7.436;2022-08-21T01:56:54;7.88;;;4.40;;
49776;SDS011;35673;51.482;7.436;2022-08-21T01:59:20;7.82;;;4.13;;
49776;SDS011;35673;51.482;7.436;2022-08-21T02:01:48;7.57;;;4.05;;
49776;SDS011;35673;51.482;7.436;2022-08-21T02:04:14;8.52;;;4.47;;
49776;SDS011;35673;51.482;7.436;2022-08-21T02:06:40;9.45;;;4.63;;
49776;SDS011;35673;51.482;7.436;2022-08-21T02:09:06;7.80;;;4.20;;
49776;SDS011;35673;51.482;7.436;2022-08-21T02:11:33;9.57;;;4.25;;
49776;SDS011;35673;51.482;7.436;2022-08-21T02:14:00;10.70;;;4.47;;
49776;SDS011;35673;51.482;7.436;2022-08-21T02:16:27;9.60;;;4.13;;
49776;SDS011;35673;51.482;7.436;2022-08-21T02:18:52;15.52;;;4.78;;
49776;SDS011;35673;51.482;7.436;2022-08-21T02:21:18;10.23;;;4.63;;
49776;SDS011;35673;51.482;7.436;2022-08-21T02:23:44;10.15;;;4.50;;
49776;SDS011;35673;51.482;7.436;2022-08-21T02:26:10;10.15;;;4.35;;
49776;SDS011;35673;51.482;7.436;2022-08-21T02:28:36;8.27;;;4.18;;
49776;SDS011;35673;51.482;7.436;2022-08-21T02:31:02;7.18;;;4.30;;
49776;SDS011;35673;51.482;7.436;2022-08-21T02:33:28;8.55;;;4.57;;
49776;SDS011;35673;51.482;7.436;2022-08-21T02:35:55;10.32;;;4.38;;
49776;SDS011;35673;51.482;7.436;2022-08-21T02:38:25;12.20;;;5.55;;
49776;SDS011;35673;51.482;7.436;2022-08-21T02:40:54;7.60;;;3.92;;
49776;SDS011;35673;51.482;7.436;2022-08-21T02:43:21;8.48;;;4.35;;
49776;SDS011;35673;51.482;7.436;2022-08-21T02:45:48;7.55;;;4.30;;
49776;SDS011;35673;51.482;7.436;2022-08-21T02:48:16;8.27;;;4.47;;
49776;SDS011;35673;51.482;7.436;2022-08-21T02:50:46;7.85;;;4.90;;
49776;SDS011;35673;51.482;7.436;2022-08-21T02:53:14;9.65;;;4.90;;
49776;SDS011;35673;51.482;7.436;2022-08-21T02:55:42;6.28;;;4.43;;
49776;SDS011;35673;51.482;7.436;2022-08-21T02:58:12;9.32;;;5.05;;
49776;SDS011;35673;51.482;7.436;2022-08-21T03:00:40;11.05;;;5.50;;
49776;SDS011;35673;51.482;7.436;2022-08-21T03:03:07;8.63;;;5.35;;
49776;SDS011;35673;51.482;7.436;2022-08-21T03:05:33;11.40;;;5.45;;
49776;SDS011;35673;51.482;7.436;2022-08-21T03:08:00;10.88;;;5.35;;
49776;SDS011;35673;51.482;7.436;2022-08-21T03:10:27;7.53;;;4.93;;
49776;SDS011;35673;51.482;7.436;2022-08-21T03:12:53;7.80;;;4.93;;
49776;SDS011;35673;51.482;7.436;2022-08-21T03:15:20;8.48;;;5.00;;
49776;SDS011;35673;51.482;7.436;2022-08-21T03:17:48;7.90;;;5.05;;
49776;SDS011;35673;51.482;7.436;2022-08-21T03:20:16;5.95;;;4.70;;
49776;SDS011;35673;51.482;7.436;2022-08-21T03:22:43;7.60;;;4.95;;
49776;SDS011;35673;51.482;7.436;2022-08-21T03:25:09;8.10;;;4.70;;
49776;SDS011;35673;51.482;7.436;2022-08-21T03:27:35;9.20;;;4.80;;
49776;SDS011;35673;51.482;7.436;2022-08-21T03:30:02;10.48;;;5.95;;
49776;SDS011;35673;51.482;7.436;2022-08-21T03:32:30;9.85;;;6.32;;
49776;SDS011;35673;51.482;7.436;2022-08-21T03:34:56;11.73;;;6.30;;
49776;SDS011;35673;51.482;7.436;2022-08-21T03:37:22;13.85;;;6.25;;
49776;SDS011;35673;51.482;7.436;2022-08-21T03:39:49;13.75;;;6.50;;
49776;SDS011;35673;51.482;7.436;2022-08-21T03:42:15;13.23;;;6.57;;
49776;SDS011;35673;51.482;7.436;2022-08-21T03:44:41;11.07;;;6.50;;
49776;SDS011;35673;51.482;7.436;2022-08-21T03:47:06;6.68;;;5.53;;
49776;SDS011;35673;51.482;7.436;2022-08-21T03:49:32;9.18;;;5.60;;
49776;SDS011;35673;51.482;7.436;2022-08-21T03:51:58;8.57;;;5.93;;
49776;SDS011;35673;51.482;7.436;2022-08-21T03:54:24;9.20;;;5.63;;
49776;SDS011;35673;51.482;7.436;2022-08-21T03:56:50;10.00;;;5.15;;
49776;SDS011;35673;51.482;7.436;2022-08-21T03:59:16;8.55;;;5.38;;
49776;SDS011;35673;51.482;7.436;2022-08-21T04:01:58;11.32;;;5.40;;
49776;SDS011;35673;51.482;7.436;2022-08-21T04:04:25;9.43;;;5.65;;
49776;SDS011;35673;51.482;7.436;2022-08-21T04:06:52;9.82;;;5.63;;
49776;SDS011;35673;51.482;7.436;2022-08-21T04:09:18;8.73;;;6.05;;
49776;SDS011;35673;51.482;7.436;2022-08-21T04:11:44;9.63;;;5.20;;
49776;SDS011;35673;51.482;7.436;2022-08-21T04:14:11;7.90;;;5.70;;
49776;SDS011;35673;51.482;7.436;2022-08-21T04:16:37;11.57;;;5.78;;
49776;SDS011;35673;51.482;7.436;2022-08-21T04:19:02;11.63;;;6.25;;
49776;SDS011;35673;51.482;7.436;2022-08-21T04:21:28;8.15;;;5.63;;
49776;SDS011;35673;51.482;7.436;2022-08-21T04:23:55;9.77;;;6.18;;
49776;SDS011;35673;51.482;7.436;2022-08-21T04:26:20;10.05;;;5.03;;
49776;SDS011;35673;51.482;7.436;2022-08-21T04:28:46;7.93;;;5.13;;
49776;SDS011;35673;51.482;7.436;2022-08-21T04:31:12;6.90;;;4.88;;
49776;SDS011;35673;51.482;7.436;2022-08-21T04:33:38;10.27;;;5.32;;
49776;SDS011;35673;51.482;7.436;2022-08-21T04:36:04;12.70;;;4.57;;
49776;SDS011;35673;51.482;7.436;2022-08-21T04:38:31;8.48;;;5.10;;
49776;SDS011;35673;51.482;7.436;2022-08-21T04:40:57;8.68;;;5.30;;
49776;SDS011;35673;51.482;7.436;2022-08-21T04:43:23;8.90;;;4.95;;
49776;SDS011;35673;51.482;7.436;2022-08-21T04:45:49;6.80;;;4.65;;
49776;SDS011;35673;51.482;7.436;2022-08-21T04:48:16;10.38;;;5.07;;
49776;SDS011;35673;51.482;7.436;2022-08-21T04:53:29;6.20;;;4.45;;
49776;SDS011;35673;51.482;7.436;2022-08-21T04:55:56;14.45;;;5.30;;
49776;SDS011;35673;51.482;7.436;2022-08-21T04:58:26;6.82;;;4.93;;
49776;SDS011;35673;51.482;7.436;2022-08-21T05:00:54;10.50;;;5.25;;
49776;SDS011;35673;51.482;7.436;2022-08-21T05:03:22;11.40;;;5.72;;
49776;SDS011;35673;51.482;7.436;2022-08-21T05:05:48;7.93;;;5.60;;
49776;SDS011;35673;51.482;7.436;2022-08-21T05:08:16;9.90;;;6.18;;
49776;SDS011;35673;51.482;7.436;2022-08-21T05:10:44;8.55;;;5.55;;
49776;SDS011;35673;51.482;7.436;2022-08-21T05:13:11;9.07;;;5.57;;
49776;SDS011;35673;51.482;7.436;2022-08-21T05:15:38;11.52;;;5.60;;
49776;SDS011;35673;51.482;7.436;2022-08-21T05:18:04;10.27;;;5.85;;
49776;SDS011;35673;51.482;7.436;2022-08-21T05:20:31;9.77;;;5.50;;
49776;SDS011;35673;51.482;7.436;2022-08-21T05:22:59;6.95;;;4.72;;
49776;SDS011;35673;51.482;7.436;2022-08-21T05:25:25;8.48;;;4.57;;
49776;SDS011;35673;51.482;7.436;2022-08-21T05:27:51;8.00;;;5.43;;
49776;SDS011;35673;51.482;7.436;2022-08-21T05:30:18;12.68;;;6.00;;
49776;SDS011;35673;51.482;7.436;2022-08-21T05:32:45;8.68;;;6.28;;
49776;SDS011;35673;51.482;7.436;2022-08-21T05:35:11;9.40;;;4.95;;
49776;SDS011;35673;51.482;7.436;2022-08-21T05:37:36;6.78;;;4.90;;
49776;SDS011;35673;51.482;7.436;2022-08-21T05:40:03;10.98;;;5.65;;
49776;SDS011;35673;51.482;7.436;2022-08-21T05:42:30;13.00;;;5.10;;
49776;SDS011;35673;51.482;7.436;2022-08-21T05:44:55;13.73;;;5.60;;
49776;SDS011;35673;51.482;7.436;2022-08-21T05:47:21;8.75;;;4.90;;
49776;SDS011;35673;51.482;7.436;2022-08-21T05:49:46;8.50;;;5.55;;
49776;SDS011;35673;51.482;7.436;2022-08-21T05:52:12;12.23;;;5.78;;
49776;SDS011;35673;51.482;7.436;2022-08-21T05:54:44;11.02;;;5.55;;
49776;SDS011;35673;51.482;7.436;2022-08-21T05:57:10;7.90;;;5.65;;
49776;SDS011;35673;51.482;7.436;2022-08-21T05:59:35;9.80;;;5.63;;
49776;SDS011;35673;51.482;7.436;2022-08-21T06:02:02;12.43;;;6.05;;
49776;SDS011;35673;51.482;7.436;2022-08-21T06:04:29;8.63;;;5.22;;
49776;SDS011;35673;51.482;7.436;2022-08-21T06:06:54;8.85;;;4.95;;
49776;SDS011;35673;51.482;7.436;2022-08-21T06:09:20;7.25;;;5.13;;
49776;SDS011;35673;51.482;7.436;2022-08-21T06:11:46;9.43;;;5.68;;
49776;SDS011;35673;51.482;7.436;2022-08-21T06:14:13;8.25;;;4.50;;
49776;SDS011;35673;51.482;7.436;2022-08-21T06:16:40;8.75;;;4.82;;
49776;SDS011;35673;51.482;7.436;2022-08-21T06:19:05;11.27;;;5.18;;
49776;SDS011;35673;51.482;7.436;2022-08-21T06:21:31;6.75;;;4.45;;
49776;SDS011;35673;51.482;7.436;2022-08-21T06:23:56;6.90;;;4.57;;
49776;SDS011;35673;51.482;7.436;2022-08-21T06:26:22;9.82;;;5.03;;
49776;SDS011;35673;51.482;7.436;2022-08-21T06:28:48;15.40;;;4.50;;
49776;SDS011;35673;51.482;7.436;2022-08-21T06:31:16;8.93;;;4.68;;
49776;SDS011;35673;51.482;7.436;2022-08-21T06:33:43;6.43;;;4.50;;
49776;SDS011;35673;51.482;7.436;2022-08-21T06:36:09;13.13;;;5.82;;
49776;SDS011;35673;51.482;7.436;2022-08-21T06:38:35;11.35;;;5.20;;
49776;SDS011;35673;51.482;7.436;2022-08-21T06:41:01;11.07;;;5.47;;
49776;SDS011;35673;51.482;7.436;2022-08-21T06:43:27;16.67;;;5.63;;
49776;SDS011;35673;51.482;7.436;2022-08-21T06:45:52;11.52;;;5.90;;
49776;SDS011;35673;51.482;7.436;2022-08-21T06:48:18;13.38;;;6.55;;
49776;SDS011;35673;51.482;7.436;2022-08-21T06:50:43;13.27;;;5.80;;
49776;SDS011;35673;51.482;7.436;2022-08-21T06:53:11;10.23;;;5.75;;
49776;SDS011;35673;51.482;7.436;2022-08-21T06:55:39;12.65;;;5.90;;
49776;SDS011;35673;51.482;7.436;2022-08-21T06:58:05;11.85;;;5.40;;
49776;SDS011;35673;51.482;7.436;2022-08-21T07:00:31;14.10;;;5.75;;
49776;SDS011;35673;51.482;7.436;2022-08-21T07:02:58;11.25;;;5.63;;
49776;SDS011;35673;51.482;7.436;2022-08-21T07:05:27;14.77;;;4.95;;
49776;SDS011;35673;51.482;7.436;2022-08-21T07:07:55;8.77;;;5.60;;
49776;SDS011;35673;51.482;7.436;2022-08-21T07:10:22;10.25;;;5.25;;
49776;SDS011;35673;51.482;7.436;2022-08-21T07:12:49;8.63;;;5.15;;
49776;SDS011;35673;51.482;7.436;2022-08-21T07:15:15;7.90;;;4.97;;
49776;SDS011;35673;51.482;7.436;2022-08-21T07:17:40;15.48;;;4.60;;
49776;SDS011;35673;51.482;7.436;2022-08-21T07:20:06;8.57;;;5.18;;
49776;SDS011;35673;51.482;7.436;2022-08-21T07:22:32;9.73;;;4.93;;
49776;SDS011;35673;51.482;7.436;2022-08-21T07:25:00;10.73;;;5.68;;
49776;SDS011;35673;51.482;7.436;2022-08-21T07:27:25;12.20;;;7.40;;
49776;SDS011;35673;51.482;7.436;2022-08-21T07:29:52;10.80;;;6.88;;
49776;SDS011;35673;51.482;7.436;2022-08-21T07:32:17;9.80;;;5.93;;
49776;SDS011;35673;51.482;7.436;2022-08-21T07:34:43;12.73;;;6.07;;
49776;SDS011;35673;51.482;7.436;2022-08-21T07:37:09;14.65;;;7.70;;
49776;SDS011;35673;51.482;7.436;2022-08-21T07:39:35;10.65;;;6.05;;
49776;SDS011;35673;51.482;7.436;2022-08-21T07:42:01;13.30;;;7.10;;
49776;SDS011;35673;51.482;7.436;2022-08-21T07:44:28;13.95;;;6.55;;
49776;SDS011;35673;51.482;7.436;2022-08-21T07:46:53;12.95;;;6.65;;
49776;SDS011;35673;51.482;7.436;2022-08-21T07:49:19;12.85;;;6.68;;
49776;SDS011;35673;51.482;7.436;2022-08-21T07:51:44;15.27;;;8.23;;
49776;SDS011;35673;51.482;7.436;2022-08-21T07:54:10;9.50;;;6.45;;
49776;SDS011;35673;51.482;7.436;2022-08-21T07:56:36;13.00;;;6.55;;
49776;SDS011;35673;51.482;7.436;2022-08-21T07:59:02;11.90;;;6.65;;
49776;SDS011;35673;51.482;7.436;2022-08-21T08:01:27;12.95;;;7.07;;
49776;SDS011;35673;51.482;7.436;2022-08-21T08:03:53;12.60;;;7.72;;
49776;SDS011;35673;51.482;7.436;2022-08-21T08:06:19;14.55;;;7.82;;
49776;SDS011;35673;51.482;7.436;2022-08-21T08:08:45;14.90;;;7.70;;
49776;SDS011;35673;51.482;7.436;2022-08-21T08:11:11;13.93;;;7.05;;
49776;SDS011;35673;51.482;7.436;2022-08-21T08:13:50;13.45;;;6.40;;
49776;SDS011;35673;51.482;7.436;2022-08-21T08:16:16;12.95;;;6.90;;
49776;SDS011;35673;51.482;7.436;2022-08-21T08:18:43;17.85;;;7.53;;
49776;SDS011;35673;51.482;7.436;2022-08-21T08:21:10;14.98;;;7.65;;
49776;SDS011;35673;51.482;7.436;2022-08-21T08:23:36;10.52;;;5.93;;
49776;SDS011;35673;51.482;7.436;2022-08-21T08:26:02;9.85;;;5.70;;
49776;SDS011;35673;51.482;7.436;2022-08-21T08:28:29;10.32;;;5.10;;
49776;SDS011;35673;51.482;7.436;2022-08-21T08:30:56;12.23;;;6.90;;
49776;SDS011;35673;51.482;7.436;2022-08-21T08:33:22;7.72;;;5.30;;
49776;SDS011;35673;51.482;7.436;2022-08-21T08:35:48;11.10;;;4.95;;
49776;SDS011;35673;51.482;7.436;2022-08-21T08:38:16;8.73;;;4.65;;
49776;SDS011;35673;51.482;7.436;2022-08-21T08:40:45;15.45;;;5.45;;
49776;SDS011;35673;51.482;7.436;2022-08-21T08:43:13;12.27;;;4.63;;
49776;SDS011;35673;51.482;7.436;2022-08-21T08:45:39;6.97;;;3.25;;
49776;SDS011;35673;51.482;7.436;2022-08-21T08:48:10;6.15;;;3.22;;
49776;SDS011;35673;51.482;7.436;2022-08-21T08:53:06;6.47;;;2.78;;
49776;SDS011;35673;51.482;7.436;2022-08-21T08:55:37;6.82;;;3.10;;
49776;SDS011;35673;51.482;7.436;2022-08-21T08:58:06;9.18;;;3.85;;
49776;SDS011;35673;51.482;7.436;2022-08-21T09:00:34;7.50;;;3.30;;
49776;SDS011;35673;51.482;7.436;2022-08-21T09:03:01;9.82;;;2.60;;
49776;SDS011;35673;51.482;7.436;2022-08-21T09:17:20;8.35;;;2.47;;
49776;SDS011;35673;51.482;7.436;2022-08-21T09:25:20;4.65;;;1.85;;
49776;SDS011;35673;51.482;7.436;2022-08-21T09:27:49;4.38;;;1.67;;
49776;SDS011;35673;51.482;7.436;2022-08-21T09:30:15;4.70;;;2.05;;
49776;SDS011;35673;51.482;7.436;2022-08-21T09:32:42;6.47;;;2.05;;
49776;SDS011;35673;51.482;7.436;2022-08-21T09:37:46;5.50;;;2.03;;
49776;SDS011;35673;51.482;7.436;2022-08-21T09:43:03;5.38;;;1.65;;
49776;SDS011;35673;51.482;7.436;2022-08-21T09:45:31;4.00;;;1.70;;
49776;SDS011;35673;51.482;7.436;2022-08-21T09:50:42;4.28;;;1.83;;
49776;SDS011;35673;51.482;7.436;2022-08-21T09:53:26;6.43;;;1.70;;
49776;SDS011;35673;51.482;7.436;2022-08-21T09:58:41;5.63;;;1.83;;
49776;SDS011;35673;51.482;7.436;2022-08-21T10:01:27;9.77;;;1.80;;
49776;SDS011;35673;51.482;7.436;2022-08-21T10:04:08;8.10;;;2.30;;
49776;SDS011;35673;51.482;7.436;2022-08-21T10:06:35;6.68;;;2.00;;
49776;SDS011;35673;51.482;7.436;2022-08-21T10:09:05;7.82;;;2.47;;
49776;SDS011;35673;51.482;7.436;2022-08-21T10:11:32;4.93;;;2.00;;
49776;SDS011;35673;51.482;7.436;2022-08-21T10:16:38;7.25;;;2.20;;
49776;SDS011;35673;51.482;7.436;2022-08-21T10:24:21;6.80;;;1.83;;
49776;SDS011;35673;51.482;7.436;2022-08-21T10:32:27;4.32;;;1.63;;
49776;SDS011;35673;51.482;7.436;2022-08-21T10:40:57;9.02;;;2.25;;
49776;SDS011;35673;51.482;7.436;2022-08-21T10:46:49;5.40;;;2.03;;
49776;SDS011;35673;51.482;7.436;2022-08-21T10:49:41;5.05;;;2.05;;
49776;SDS011;35673;51.482;7.436;2022-08-21T10:52:30;9.02;;;2.60;;
49776;SDS011;35673;51.482;7.436;2022-08-21T10:55:22;5.10;;;1.90;;
49776;SDS011;35673;51.482;7.436;2022-08-21T11:03:17;6.90;;;1.90;;
49776;SDS011;35673;51.482;7.436;2022-08-21T11:06:04;4.28;;;1.30;;
49776;SDS011;35673;51.482;7.436;2022-08-21T11:08:41;3.58;;;1.17;;
49776;SDS011;35673;51.482;7.436;2022-08-21T11:11:18;3.92;;;1.52;;
49776;SDS011;35673;51.482;7.436;2022-08-21T11:14:03;7.30;;;1.88;;
49776;SDS011;35673;51.482;7.436;2022-08-21T11:16:42;3.97;;;1.60;;
49776;SDS011;35673;51.482;7.436;2022-08-21T11:19:26;4.70;;;1.75;;
49776;SDS011;35673;51.482;7.436;2022-08-21T11:24:38;5.45;;;1.73;;
49776;SDS011;35673;51.482;7.436;2022-08-21T11:30:07;6.53;;;1.58;;
49776;SDS011;35673;51.482;7.436;2022-08-21T11:38:15;3.63;;;1.33;;
49776;SDS011;35673;51.482;7.436;2022-08-21T11:52:07;4.80;;;1.25;;
49776;SDS011;35673;51.482;7.436;2022-08-21T11:57:17;5.00;;;1.42;;
49776;SDS011;35673;51.482;7.436;2022-08-21T11:59:53;4.00;;;1.02;;
49776;SDS011;35673;51.482;7.436;2022-08-21T12:02:28;2.85;;;1.00;;
49776;SDS011;35673;51.482;7.436;2022-08-21T12:05:00;3.70;;;1.00;;
49776;SDS011;35673;51.482;7.436;2022-08-21T12:07:35;1.58;;;0.70;;
49776;SDS011;35673;51.482;7.436;2022-08-21T12:10:11;4.03;;;1.38;;
49776;SDS011;35673;51.482;7.436;2022-08-21T12:12:43;3.92;;;1.20;;
49776;SDS011;35673;51.482;7.436;2022-08-21T12:17:58;2.58;;;0.85;;
49776;SDS011;35673;51.482;7.436;2022-08-21T12:25:44;4.97;;;1.17;;
49776;SDS011;35673;51.482;7.436;2022-08-21T12:28:22;3.40;;;1.40;;
49776;SDS011;35673;51.482;7.436;2022-08-21T12:30:49;3.30;;;1.00;;
49776;SDS011;35673;51.482;7.436;2022-08-21T12:35:46;5.40;;;2.40;;
49776;SDS011;35673;51.482;7.436;2022-08-21T12:38:18;1.75;;;0.77;;
49776;SDS011;35673;51.482;7.436;2022-08-21T12:43:25;2.97;;;1.30;;
49776;SDS011;35673;51.482;7.436;2022-08-21T12:45:58;2.42;;;0.98;;
49776;SDS011;35673;51.482;7.436;2022-08-21T12:50:54;2.53;;;0.85;;
49776;SDS011;35673;51.482;7.436;2022-08-21T12:58:33;3.90;;;0.80;;
49776;SDS011;35673;51.482;7.436;2022-08-21T13:01:02;4.35;;;0.88;;
49776;SDS011;35673;51.482;7.436;2022-08-21T13:03:34;2.40;;;0.77;;
49776;SDS011;35673;51.482;7.436;2022-08-21T13:06:02;2.33;;;0.90;;
49776;SDS011;35673;51.482;7.436;2022-08-21T13:08:29;1.63;;;0.82;;
49776;SDS011;35673;51.482;7.436;2022-08-21T13:11:05;2.15;;;1.02;;
49776;SDS011;35673;51.482;7.436;2022-08-21T13:13:31;1.85;;;0.90;;
49776;SDS011;35673;51.482;7.436;2022-08-21T13:16:03;4.55;;;1.10;;
49776;SDS011;35673;51.482;7.436;2022-08-21T13:18:32;2.38;;;0.95;;
49776;SDS011;35673;51.482;7.436;2022-08-21T13:21:17;3.72;;;0.88;;
49776;SDS011;35673;51.482;7.436;2022-08-21T13:23:43;3.38;;;1.05;;
49776;SDS011;35673;51.482;7.436;2022-08-21T13:26:16;2.13;;;0.82;;
49776;SDS011;35673;51.482;7.436;2022-08-21T13:28:44;1.92;;;0.52;;
49776;SDS011;35673;51.482;7.436;2022-08-21T13:31:12;1.88;;;0.90;;
49776;SDS011;35673;51.482;7.436;2022-08-21T13:33:52;3.25;;;0.50;;
49776;SDS011;35673;51.482;7.436;2022-08-21T13:36:41;2.17;;;0.60;;
49776;SDS011;35673;51.482;7.436;2022-08-21T13:39:11;2.85;;;0.73;;
49776;SDS011;35673;51.482;7.436;2022-08-21T13:41:40;4.70;;;0.90;;
49776;SDS011;35673;51.482;7.436;2022-08-21T13:44:19;1.65;;;0.70;;
49776;SDS011;35673;51.482;7.436;2022-08-21T13:46:51;3.28;;;0.52;;
49776;SDS011;35673;51.482;7.436;2022-08-21T13:49:18;2.97;;;0.60;;
49776;SDS011;35673;51.482;7.436;2022-08-21T13:51:46;1.40;;;0.77;;
49776;SDS011;35673;51.482;7.436;2022-08-21T13:54:20;2.88;;;0.40;;
49776;SDS011;35673;51.482;7.436;2022-08-21T13:56:49;2.03;;;1.30;;
49776;SDS011;35673;51.482;7.436;2022-08-21T14:02:15;5.10;;;1.70;;
49776;SDS011;35673;51.482;7.436;2022-08-21T14:07:44;2.55;;;0.45;;
49776;SDS011;35673;51.482;7.436;2022-08-21T14:12:50;1.42;;;0.52;;
49776;SDS011;35673;51.482;7.436;2022-08-21T14:15:22;3.38;;;0.70;;
49776;SDS011;35673;51.482;7.436;2022-08-21T14:17:50;2.10;;;0.55;;
49776;SDS011;35673;51.482;7.436;2022-08-21T14:20:29;3.33;;;0.95;;
49776;SDS011;35673;51.482;7.436;2022-08-21T14:22:57;2.53;;;0.90;;
49776;SDS011;35673;51.482;7.436;2022-08-21T14:32:54;1.13;;;0.63;;
49776;SDS011;35673;51.482;7.436;2022-08-21T14:35:20;2.58;;;0.50;;
49776;SDS011;35673;51.482;7.436;2022-08-21T14:37:46;1.65;;;0.60;;
49776;SDS011;35673;51.482;7.436;2022-08-21T14:40:15;2.20;;;0.50;;
49776;SDS011;35673;51.482;7.436;2022-08-21T14:42:42;2.55;;;0.60;;
49776;SDS011;35673;51.482;7.436;2022-08-21T14:45:28;5.13;;;0.85;;
49776;SDS011;35673;51.482;7.436;2022-08-21T14:47:55;1.90;;;0.50;;
49776;SDS011;35673;51.482;7.436;2022-08-21T14:50:22;3.00;;;1.17;;
49776;SDS011;35673;51.482;7.436;2022-08-21T14:52:48;2.75;;;0.70;;
49776;SDS011;35673;51.482;7.436;2022-08-21T14:55:14;2.08;;;0.80;;
49776;SDS011;35673;51.482;7.436;2022-08-21T14:57:41;3.20;;;0.90;;
49776;SDS011;35673;51.482;7.436;2022-08-21T15:00:15;2.03;;;0.70;;
49776;SDS011;35673;51.482;7.436;2022-08-21T15:02:43;2.70;;;0.73;;
49776;SDS011;35673;51.482;7.436;2022-08-21T15:05:09;1.95;;;0.70;;
49776;SDS011;35673;51.482;7.436;2022-08-21T15:07:35;3.90;;;0.95;;
49776;SDS011;35673;51.482;7.436;2022-08-21T15:10:03;1.83;;;1.25;;
49776;SDS011;35673;51.482;7.436;2022-08-21T15:12:29;4.15;;;1.33;;
49776;SDS011;35673;51.482;7.436;2022-08-21T15:14:55;1.70;;;1.00;;
49776;SDS011;35673;51.482;7.436;2022-08-21T15:17:20;3.13;;;0.95;;
49776;SDS011;35673;51.482;7.436;2022-08-21T15:19:46;3.85;;;1.27;;
49776;SDS011;35673;51.482;7.436;2022-08-21T15:22:12;4.32;;;1.13;;
49776;SDS011;35673;51.482;7.436;2022-08-21T15:24:38;3.80;;;1.42;;
49776;SDS011;35673;51.482;7.436;2022-08-21T15:27:04;2.83;;;1.20;;
49776;SDS011;35673;51.482;7.436;2022-08-21T15:29:32;4.72;;;1.38;;
49776;SDS011;35673;51.482;7.436;2022-08-21T15:31:59;2.92;;;1.25;;
49776;SDS011;35673;51.482;7.436;2022-08-21T15:34:28;3.75;;;1.50;;
49776;SDS011;35673;51.482;7.436;2022-08-21T15:36:55;4.13;;;1.45;;
49776;SDS011;35673;51.482;7.436;2022-08-21T15:39:22;2.22;;;0.93;;
49776;SDS011;35673;51.482;7.436;2022-08-21T15:41:49;2.33;;;0.73;;
49776;SDS011;35673;51.482;7.436;2022-08-21T15:44:15;4.82;;;1.20;;
49776;SDS011;35673;51.482;7.436;2022-08-21T15:46:41;3.17;;;0.82;;
49776;SDS011;35673;51.482;7.436;2022-08-21T15:49:07;2.00;;;0.68;;
49776;SDS011;35673;51.482;7.436;2022-08-21T15:51:33;2.13;;;0.60;;
49776;SDS011;35673;51.482;7.436;2022-08-21T15:53:59;1.52;;;0.75;;
49776;SDS011;35673;51.482;7.436;2022-08-21T15:56:26;1.92;;;0.70;;
49776;SDS011;35673;51.482;7.436;2022-08-21T15:59:02;1.70;;;0.57;;
49776;SDS011;35673;51.482;7.436;2022-08-21T16:01:32;2.92;;;0.70;;
49776;SDS011;35673;51.482;7.436;2022-08-21T16:03:59;3.50;;;0.90;;
49776;SDS011;35673;51.482;7.436;2022-08-21T16:06:24;1.48;;;0.73;;
49776;SDS011;35673;51.482;7.436;2022-08-21T16:08:50;2.70;;;1.05;;
49776;SDS011;35673;51.482;7.436;2022-08-21T16:11:16;3.10;;;0.77;;
49776;SDS011;35673;51.482;7.436;2022-08-21T16:13:43;4.65;;;1.40;;
49776;SDS011;35673;51.482;7.436;2022-08-21T16:16:11;2.67;;;0.90;;
49776;SDS011;35673;51.482;7.436;2022-08-21T16:18:41;3.20;;;1.10;;
49776;SDS011;35673;51.482;7.436;2022-08-21T16:21:07;4.05;;;1.15;;
49776;SDS011;35673;51.482;7.436;2022-08-21T16:23:34;3.30;;;1.10;;
49776;SDS011;35673;51.482;7.436;2022-08-21T16:26:03;2.78;;;1.08;;
49776;SDS011;35673;51.482;7.436;2022-08-21T16:28:31;1.80;;;0.80;;
49776;SDS011;35673;51.482;7.436;2022-08-21T16:30:59;4.15;;;1.55;;
49776;SDS011;35673;51.482;7.436;2022-08-21T16:33:31;1.50;;;1.00;;
49776;SDS011;35673;51.482;7.436;2022-08-21T16:36:01;3.05;;;1.30;;
49776;SDS011;35673;51.482;7.436;2022-08-21T16:38:27;2.55;;;0.82;;
49776;SDS011;35673;51.482;7.436;2022-08-21T16:40:53;4.18;;;1.02;;
49776;SDS011;35673;51.482;7.436;2022-08-21T16:43:21;2.67;;;1.20;;
49776;SDS011;35673;51.482;7.436;2022-08-21T16:45:49;3.25;;;1.17;;
49776;SDS011;35673;51.482;7.436;2022-08-21T16:48:15;3.63;;;1.35;;
49776;SDS011;35673;51.482;7.436;2022-08-21T16:50:40;3.72;;;1.20;;
49776;SDS011;35673;51.482;7.436;2022-08-21T16:53:06;3.08;;;1.20;;
49776;SDS011;35673;51.482;7.436;2022-08-21T16:55:33;2.28;;;0.85;;